Time;durP1;ratioP1;P1;durP2;ratioP2;P2;SDS_P1;SDS_P2;PMS_P1;PMS_P2;Temp;Humidity;BMP_temperature;BMP_pressure;BME280_temperature;BME280_humidity;BME280_pressure;Samples;Min_cycle;Max_cycle;Signal;HPM_P1;HPM_P2
2021/06/24 00:01:44;;;;;;;16.32;6.47;;;;;;;21.26;71.69;97840.45;1705276;83;21017;-74
2021/06/24 00:04:14;;;;;;;16.90;5.35;;;;;;;21.25;71.37;97848.68;1705041;84;21006;-74
2021/06/24 00:06:43;;;;;;;10.90;5.80;;;;;;;21.21;71.16;97846.20;1704818;84;20966;-74
2021/06/24 00:09:12;;;;;;;17.52;5.70;;;;;;;21.19;70.15;97844.13;1707602;84;21001;-74
2021/06/24 00:11:41;;;;;;;15.72;5.80;;;;;;;21.17;70.65;97837.98;1707381;84;21423;-74
2021/06/24 00:14:10;;;;;;;13.53;6.28;;;;;;;21.15;70.34;97839.07;1707699;84;21033;-74
2021/06/24 00:16:38;;;;;;;13.45;5.53;;;;;;;21.12;70.64;97837.47;1707450;84;21392;-74
2021/06/24 00:19:05;;;;;;;15.03;5.67;;;;;;;21.04;70.59;97839.88;1707456;84;21006;-74
2021/06/24 00:21:33;;;;;;;13.45;5.65;;;;;;;20.99;70.73;97846.97;1707702;84;21372;-74
2021/06/24 00:24:03;;;;;;;14.55;5.10;;;;;;;20.94;70.99;97841.94;1707395;84;21391;-74
2021/06/24 00:26:29;;;;;;;12.40;5.87;;;;;;;20.88;70.44;97845.06;1707694;84;20975;-74
2021/06/24 00:28:58;;;;;;;12.30;5.42;;;;;;;20.85;70.26;97846.63;1709774;83;21034;-74
2021/06/24 00:31:27;;;;;;;14.00;5.60;;;;;;;20.80;70.30;97856.38;1717978;83;21036;-74
2021/06/24 00:33:58;;;;;;;12.65;5.20;;;;;;;20.76;70.92;97856.73;1690752;85;21149;-74
2021/06/24 00:36:29;;;;;;;16.90;6.62;;;;;;;20.74;70.84;97853.28;1690450;85;20990;-74
2021/06/24 00:38:57;;;;;;;14.65;5.58;;;;;;;20.76;70.48;97858.09;1680882;85;21073;-74
2021/06/24 00:41:26;;;;;;;12.07;5.67;;;;;;;20.75;70.98;97858.56;1663356;85;21383;-74
2021/06/24 00:43:56;;;;;;;14.55;4.87;;;;;;;20.74;70.49;97855.97;1662996;86;21069;-74
2021/06/24 00:46:25;;;;;;;17.73;5.67;;;;;;;20.80;70.58;97855.55;1662893;86;20990;-74
2021/06/24 00:48:58;;;;;;;12.43;4.65;;;;;;;20.84;70.63;97857.01;1662858;86;21507;-74
2021/06/24 00:51:29;;;;;;;16.62;5.40;;;;;;;20.87;70.67;97853.26;1662680;86;21026;-74
2021/06/24 00:53:58;;;;;;;14.87;5.62;;;;;;;20.88;70.43;97850.45;1662982;86;21372;-74
2021/06/24 00:56:32;;;;;;;14.05;4.60;;;;;;;20.92;70.04;97847.07;1662990;86;21065;-74
2021/06/24 00:59:03;;;;;;;;;;;;;;;20.90;69.29;97850.34;1665447;86;21069;-74
2021/06/24 01:01:34;;;;;;;;;;;;;;;20.83;69.17;97848.09;1665669;86;20122;-74
2021/06/24 01:04:04;;;;;;;15.20;5.10;;;;;;;20.76;68.86;97841.92;1663084;86;20149;-74
2021/06/24 01:06:35;;;;;;;14.30;5.17;;;;;;;20.69;68.88;97839.66;1662425;85;21426;-74
2021/06/24 01:09:07;;;;;;;10.38;4.87;;;;;;;20.65;69.02;97842.23;1672725;85;21005;-74
2021/06/24 01:11:36;;;;;;;13.13;4.80;;;;;;;20.61;69.04;97847.94;1690964;85;20998;-74
2021/06/24 01:14:05;;;;;;;19.35;5.80;;;;;;;20.56;68.67;97845.60;1667715;84;21021;-74
2021/06/24 01:16:32;;;;;;;18.10;5.00;;;;;;;20.53;68.56;97843.13;1691002;85;21001;-74
2021/06/24 01:19:01;;;;;;;12.65;5.70;;;;;;;20.45;68.83;97847.72;1690608;85;21105;-74
2021/06/24 01:21:31;;;;;;;12.55;4.92;;;;;;;20.42;69.06;97847.94;1691027;85;21021;-74
2021/06/24 01:23:59;;;;;;;12.18;5.35;;;;;;;20.38;68.95;97858.07;1690875;85;21040;-74
2021/06/24 01:26:26;;;;;;;15.78;4.72;;;;;;;20.37;69.42;97856.83;1690823;83;21040;-74
2021/06/24 01:28:53;;;;;;;17.37;5.78;;;;;;;20.34;69.38;97851.69;1687229;85;21562;-74
2021/06/24 01:31:25;;;;;;;10.90;4.80;;;;;;;20.33;69.18;97848.12;1673043;84;21029;-74
2021/06/24 01:33:51;;;;;;;12.05;4.60;;;;;;;20.31;69.11;97835.28;1707605;83;20955;-74
2021/06/24 01:36:20;;;;;;;17.12;5.42;;;;;;;20.27;69.08;97847.23;1707788;84;21404;-74
2021/06/24 01:38:50;;;;;;;10.10;4.80;;;;;;;20.28;68.78;97852.51;1707602;84;20998;-74
2021/06/24 01:41:22;;;;;;;13.65;4.37;;;;;;;20.26;68.70;97855.77;1704278;83;21167;-74
2021/06/24 01:43:53;;;;;;;10.70;4.97;;;;;;;20.24;68.80;97848.78;1707706;84;20973;-74
2021/06/24 01:46:22;;;;;;;12.98;5.03;;;;;;;20.23;68.70;97849.77;1707467;84;21471;-74
2021/06/24 01:48:53;;;;;;;11.35;4.70;;;;;;;20.20;68.58;97841.42;1709415;83;21002;-74
2021/06/24 01:51:25;;;;;;;14.45;4.87;;;;;;;20.15;68.88;97849.84;1708894;83;20993;-74
2021/06/24 01:53:55;;;;;;;13.30;5.28;;;;;;;20.07;69.25;97841.45;1707484;84;20974;-75
2021/06/24 01:56:24;;;;;;;17.40;5.50;;;;;;;20.00;69.52;97842.36;1707700;84;21446;-74
2021/06/24 01:58:58;;;;;;;9.13;4.45;;;;;;;19.91;69.58;97850.58;1708314;83;20958;-74
2021/06/24 02:01:37;;;;;;;10.95;4.58;;;;;;;19.88;69.62;97852.13;1705313;84;21064;-74
2021/06/24 02:04:07;;;;;;;13.55;4.58;;;;;;;19.84;69.54;97846.58;1705759;84;21443;-74
2021/06/24 02:06:37;;;;;;;13.32;4.90;;;;;;;19.81;69.86;97846.81;1707699;84;21029;-74
2021/06/24 02:09:09;;;;;;;15.28;5.53;;;;;;;19.81;69.62;97851.32;1706033;83;21013;-74
2021/06/24 02:11:43;;;;;;;12.85;5.22;;;;;;;19.80;69.56;97849.10;1705065;83;21006;-74
2021/06/24 02:14:11;;;;;;;13.13;4.70;;;;;;;19.78;70.11;97845.67;1707787;84;21021;-74
2021/06/24 02:16:42;;;;;;;13.93;4.90;;;;;;;19.78;69.73;97853.74;1707474;83;21002;-74
2021/06/24 02:19:14;;;;;;;13.08;5.30;;;;;;;19.72;70.03;97856.87;1709626;83;20970;-74
2021/06/24 02:21:53;;;;;;;12.95;5.10;;;;;;;19.66;70.16;97847.39;1692298;84;20997;-74
2021/06/24 02:24:22;;;;;;;16.57;5.42;;;;;;;19.61;70.31;97850.88;1707772;84;21017;-74
2021/06/24 02:26:53;;;;;;;18.10;4.92;;;;;;;19.58;70.59;97851.08;1707524;84;21002;-74
2021/06/24 02:29:26;;;;;;;15.55;5.25;;;;;;;19.52;70.66;97853.73;1705352;84;20998;-74
2021/06/24 02:31:58;;;;;;;12.13;5.03;;;;;;;19.48;70.63;97857.59;1692533;84;21455;-74
2021/06/24 02:34:31;;;;;;;12.03;5.40;;;;;;;19.43;70.88;97852.52;1659436;86;21073;-74
2021/06/24 02:37:04;;;;;;;13.05;4.53;;;;;;;19.38;71.12;97846.13;1662899;86;20974;-74
2021/06/24 02:39:52;;;;;;;13.15;6.08;;;;;;;19.36;71.07;97848.54;1663089;86;21013;-74
2021/06/24 02:42:21;;;;;;;15.60;5.17;;;;;;;19.35;71.24;97852.20;1663115;84;21076;-74
2021/06/24 02:44:49;;;;;;;10.58;4.92;;;;;;;19.29;71.21;97855.27;1663012;86;21075;-74
2021/06/24 02:47:18;;;;;;;12.55;4.65;;;;;;;19.25;71.10;97858.66;1663148;86;21486;-74
2021/06/24 02:49:50;;;;;;;15.60;5.40;;;;;;;19.23;71.29;97859.26;1688108;85;21012;-74
2021/06/24 02:52:17;;;;;;;13.88;4.45;;;;;;;19.22;71.47;97859.73;1690874;85;21017;-74
2021/06/24 02:54:50;;;;;;;9.58;4.65;;;;;;;19.23;71.87;97859.26;1690963;85;21037;-74
2021/06/24 02:57:21;;;;;;;14.90;5.25;;;;;;;19.21;72.20;97865.20;1690505;85;21021;-74
2021/06/24 03:00:12;;;;;;;14.05;4.47;;;;;;;19.20;72.17;97868.86;1690933;85;21463;-74
2021/06/24 03:02:43;;;;;;;14.25;5.00;;;;;;;19.24;72.44;97871.72;1689794;85;21026;-74
2021/06/24 03:05:12;;;;;;;12.55;4.40;;;;;;;19.28;72.81;97871.90;1690680;85;21009;-74
2021/06/24 03:07:44;;;;;;;10.78;4.53;;;;;;;19.29;73.02;97876.30;1690816;84;21033;-74
2021/06/24 03:10:32;;;;;;;12.35;4.33;;;;;;;19.32;73.14;97877.92;1690710;85;21034;-73
2021/06/24 03:13:04;;;;;;;9.30;4.75;;;;;;;19.36;72.88;97869.53;1690708;84;21017;-74
2021/06/24 03:15:37;;;;;;;10.70;4.90;;;;;;;19.38;72.81;97865.41;1690920;85;21478;-74
2021/06/24 03:18:11;;;;;;;14.15;5.37;;;;;;;19.41;73.08;97857.14;1683956;85;21571;-74
2021/06/24 03:20:40;;;;;;;10.48;4.45;;;;;;;19.43;73.08;97859.73;1663032;85;21514;-74
2021/06/24 03:23:11;;;;;;;15.55;5.28;;;;;;;19.47;73.29;97863.94;1662988;86;21013;-74
2021/06/24 03:25:43;;;;;;;13.60;5.33;;;;;;;19.49;72.98;97868.24;1662722;85;21084;-74
2021/06/24 03:28:12;;;;;;;17.70;5.35;;;;;;;19.53;72.84;97863.51;1663028;86;21462;-74
2021/06/24 03:30:47;;;;;;;13.08;5.37;;;;;;;19.51;72.71;97866.77;1662035;86;21100;-74
2021/06/24 03:33:18;;;;;;;13.55;4.85;;;;;;;19.52;72.59;97868.52;1662679;86;21038;-74
2021/06/24 03:35:50;;;;;;;12.82;5.35;;;;;;;19.51;72.53;97864.95;1663026;86;21033;-74
2021/06/24 03:38:19;;;;;;;18.55;5.05;;;;;;;19.54;72.33;97859.84;1663049;86;21001;-74
2021/06/24 03:40:48;;;;;;;15.65;4.80;;;;;;;19.55;72.15;97857.53;1663104;86;21097;-74
2021/06/24 03:43:19;;;;;;;13.25;5.45;;;;;;;19.57;72.58;97849.37;1663068;86;21041;-74
2021/06/24 03:45:49;;;;;;;14.13;4.75;;;;;;;19.60;72.04;97848.66;1662766;86;21070;-74
2021/06/24 03:48:18;;;;;;;15.13;5.10;;;;;;;19.62;71.44;97851.25;1673660;85;21093;-74
2021/06/24 03:50:47;;;;;;;9.33;5.37;;;;;;;19.65;71.22;97838.95;1690785;85;21028;-74
2021/06/24 03:53:16;;;;;;;11.12;4.85;;;;;;;19.68;71.18;97841.41;1689569;85;20923;-74
2021/06/24 03:55:46;;;;;;;13.58;4.95;;;;;;;19.71;71.19;97832.27;1689396;85;21033;-74
2021/06/24 03:58:18;;;;;;;15.08;4.58;;;;;;;19.72;71.32;97829.48;1675388;85;21018;-74
2021/06/24 04:00:49;;;;;;;13.85;5.08;;;;;;;19.70;71.37;97838.15;1689339;85;21041;-74
2021/06/24 04:03:18;;;;;;;12.13;4.35;;;;;;;19.69;70.61;97840.47;1673743;86;21061;-74
2021/06/24 04:05:56;;;;;;;8.25;4.53;;;;;;;19.73;70.41;97838.41;1698166;84;20981;-74
2021/06/24 04:08:25;;;;;;;11.83;4.67;;;;;;;19.78;70.28;97822.82;1698767;84;21443;-74
2021/06/24 04:10:54;;;;;;;12.78;4.33;;;;;;;19.81;70.05;97813.20;1699038;84;21024;-74
2021/06/24 04:13:23;;;;;;;11.22;4.37;;;;;;;19.85;70.11;97821.41;1699123;84;21573;-74
2021/06/24 04:15:53;;;;;;;12.35;4.22;;;;;;;19.88;69.77;97826.58;1698984;84;21045;-74
2021/06/24 04:18:22;;;;;;;8.98;4.45;;;;;;;19.92;69.14;97837.97;1698932;84;20981;-74
2021/06/24 04:21:00;;;;;;;11.43;4.62;;;;;;;19.97;69.23;97837.66;1699671;84;21075;-74
2021/06/24 04:23:29;;;;;;;11.60;5.20;;;;;;;20.03;69.22;97834.56;1700482;84;21072;-74
2021/06/24 04:25:58;;;;;;;11.00;4.30;;;;;;;20.08;69.16;97839.59;1700757;84;21255;-74
2021/06/24 04:28:28;;;;;;;11.08;4.58;;;;;;;20.11;69.03;97839.39;1700378;84;21048;-74
2021/06/24 04:31:06;;;;;;;13.62;5.37;;;;;;;20.16;68.69;97841.27;1700222;84;21033;-74
2021/06/24 04:33:37;;;;;;;14.47;4.67;;;;;;;20.22;68.38;97837.28;1700291;82;21044;-74
2021/06/24 04:36:24;;;;;;;11.70;4.53;;;;;;;20.24;68.25;97845.63;1699667;84;21025;-74
2021/06/24 04:38:55;;;;;;;12.00;4.85;;;;;;;20.26;68.23;97854.94;1699400;84;21001;-74
2021/06/24 04:41:26;;;;;;;15.72;5.47;;;;;;;20.28;68.27;97857.89;1700230;84;21036;-74
2021/06/24 04:43:57;;;;;;;12.20;4.50;;;;;;;20.29;68.44;97856.04;1700201;84;20985;-75
2021/06/24 04:46:27;;;;;;;18.17;5.37;;;;;;;20.34;68.52;97849.84;1700435;84;21426;-74
2021/06/24 04:48:57;;;;;;;12.70;5.22;;;;;;;20.38;68.46;97861.27;1671458;83;20978;-74
2021/06/24 04:51:44;;;;;;;10.05;4.87;;;;;;;20.40;69.00;97861.53;1639199;86;21480;-74
2021/06/24 04:54:15;;;;;;;11.88;4.65;;;;;;;20.47;68.61;97853.00;1672141;86;21127;-75
2021/06/24 04:56:46;;;;;;;10.03;4.65;;;;;;;20.53;68.47;97852.55;1672298;85;21413;-74
2021/06/24 04:59:15;;;;;;;13.88;5.00;;;;;;;20.58;68.66;97862.02;1672446;86;21065;-75
2021/06/24 05:02:04;;;;;;;13.22;4.87;;;;;;;20.65;68.60;97866.47;1672467;86;21463;-74
2021/06/24 05:04:51;;;;;;;12.55;5.12;;;;;;;20.72;68.39;97868.23;1672354;86;21080;-74
2021/06/24 05:07:24;;;;;;;13.35;4.37;;;;;;;20.78;68.47;97869.12;1671690;86;21020;-75
2021/06/24 05:09:53;;;;;;;10.50;4.65;;;;;;;20.85;67.43;97864.14;1672511;85;21068;-75
2021/06/24 05:12:23;;;;;;;15.10;4.70;;;;;;;20.93;67.31;97867.64;1672020;86;21057;-75
2021/06/24 05:14:51;;;;;;;13.05;4.58;;;;;;;20.99;67.17;97874.38;1672392;86;20997;-74
2021/06/24 05:17:19;;;;;;;13.38;4.90;;;;;;;21.06;67.38;97878.36;1674089;84;21117;-75
2021/06/24 05:19:48;;;;;;;14.90;5.00;;;;;;;21.15;67.40;97872.28;1700456;84;21064;-75
2021/06/24 05:22:17;;;;;;;12.95;4.35;;;;;;;21.25;66.62;97872.94;1699786;84;21044;-75
2021/06/24 05:24:47;;;;;;;13.18;4.60;;;;;;;21.34;66.41;97864.16;1700313;84;22142;-74
2021/06/24 05:27:16;;;;;;;17.92;5.20;;;;;;;21.42;65.88;97866.27;1669315;84;21073;-75
2021/06/24 05:29:46;;;;;;;12.70;4.90;;;;;;;21.52;65.77;97873.14;1700287;84;21502;-74
2021/06/24 05:32:15;;;;;;;12.80;4.42;;;;;;;21.59;65.24;97872.55;1700361;84;21013;-75
2021/06/24 05:34:45;;;;;;;14.28;4.47;;;;;;;21.69;65.33;97870.02;1700318;84;21060;-74
2021/06/24 05:37:14;;;;;;;14.75;4.42;;;;;;;21.80;65.34;97874.58;1700459;84;21065;-75
2021/06/24 05:39:44;;;;;;;13.65;4.12;;;;;;;21.88;65.22;97865.41;1700301;84;21057;-75
2021/06/24 05:42:15;;;;;;;16.20;4.40;;;;;;;21.97;64.42;97861.63;1700406;84;21049;-75
2021/06/24 05:44:47;;;;;;;15.98;4.25;;;;;;;22.05;63.80;97856.97;1700399;84;21072;-75
2021/06/24 05:47:16;;;;;;;11.20;4.30;;;;;;;22.17;62.96;97852.44;1699906;84;21121;-75
2021/06/24 05:49:48;;;;;;;11.78;5.62;;;;;;;22.28;63.46;97848.38;1672681;84;21402;-75
2021/06/24 05:52:18;;;;;;;15.85;4.25;;;;;;;22.37;63.17;97843.59;1672437;86;21097;-75
2021/06/24 05:54:48;;;;;;;13.90;4.30;;;;;;;22.48;63.24;97853.53;1672635;86;21064;-75
2021/06/24 05:57:16;;;;;;;11.03;4.83;;;;;;;22.57;62.85;97851.07;1685607;84;21006;-75
2021/06/24 05:59:46;;;;;;;11.05;4.50;;;;;;;22.65;63.02;97856.72;1696714;85;20979;-75
2021/06/24 06:02:13;;;;;;;10.13;4.42;;;;;;;22.73;62.83;97852.03;1696860;85;20995;-75
2021/06/24 06:04:43;;;;;;;25.27;10.50;;;;;;;22.82;62.62;97860.73;1696565;85;21094;-75
2021/06/24 06:07:13;;;;;;;12.80;4.58;;;;;;;22.91;62.40;97861.33;1696785;85;21125;-75
2021/06/24 06:09:45;;;;;;;15.28;4.67;;;;;;;23.03;61.60;97855.88;1696987;85;21035;-75
2021/06/24 06:12:16;;;;;;;13.10;5.53;;;;;;;23.14;60.99;97855.86;1696846;85;21154;-75
2021/06/24 06:14:43;;;;;;;11.88;4.62;;;;;;;23.28;61.09;97849.75;1696472;85;21091;-75
2021/06/24 06:17:14;;;;;;;16.05;4.85;;;;;;;23.38;61.35;97856.16;1693826;84;21044;-75
2021/06/24 06:19:44;;;;;;;18.12;7.33;;;;;;;23.48;61.14;97852.16;1672414;86;20994;-75
2021/06/24 06:22:12;;;;;;;16.80;6.33;;;;;;;23.59;60.50;97861.55;1672169;85;21052;-75
2021/06/24 06:24:42;;;;;;;17.57;5.85;;;;;;;23.70;60.64;97859.28;1672179;86;21076;-75
2021/06/24 06:27:12;;;;;;;13.93;5.62;;;;;;;23.83;60.03;97857.72;1672527;84;21024;-75
2021/06/24 06:29:39;;;;;;;13.45;5.67;;;;;;;23.94;60.24;97862.70;1672259;86;21017;-75
2021/06/24 06:32:07;;;;;;;17.15;5.85;;;;;;;24.06;59.87;97860.77;1672486;86;21041;-75
2021/06/24 06:34:36;;;;;;;16.23;5.65;;;;;;;24.14;59.09;97856.93;1672056;84;21140;-75
2021/06/24 06:37:04;;;;;;;11.25;5.85;;;;;;;24.25;58.99;97860.05;1672321;86;21052;-75
2021/06/24 06:39:35;;;;;;;15.25;5.83;;;;;;;24.33;58.86;97853.95;1672391;86;21058;-75
2021/06/24 06:42:03;;;;;;;15.03;5.75;;;;;;;24.44;58.56;97855.68;1672213;86;21064;-75
2021/06/24 06:44:31;;;;;;;16.65;5.25;;;;;;;24.54;57.93;97852.53;1672376;86;21064;-75
2021/06/24 06:46:59;;;;;;;17.60;6.00;;;;;;;24.64;57.73;97854.77;1673096;84;21407;-75
2021/06/24 06:49:26;;;;;;;14.15;6.20;;;;;;;24.75;57.75;97852.94;1672188;86;21075;-75
2021/06/24 06:51:54;;;;;;;17.25;6.08;;;;;;;24.85;57.56;97852.48;1641980;86;21005;-76
2021/06/24 06:54:25;;;;;;;17.82;5.70;;;;;;;24.96;56.69;97851.52;1672426;86;21096;-75
2021/06/24 06:56:52;;;;;;;14.60;5.97;;;;;;;25.08;57.07;97847.30;1672209;84;21033;-75
2021/06/24 06:59:23;;;;;;;10.65;5.33;;;;;;;25.20;56.93;97854.80;1672216;86;21033;-75
2021/06/24 07:01:51;;;;;;;12.53;5.08;;;;;;;25.31;56.84;97851.45;1672225;86;21113;-75
2021/06/24 07:04:18;;;;;;;12.90;5.65;;;;;;;25.43;56.85;97844.52;1680497;83;21052;-77
2021/06/24 07:06:49;;;;;;;12.50;5.35;;;;;;;25.53;56.68;97839.09;1710279;83;21051;-76
2021/06/24 07:09:18;;;;;;;14.83;5.67;;;;;;;25.62;56.26;97831.97;1741559;81;21032;-76
2021/06/24 07:11:49;;;;;;;16.75;6.03;;;;;;;25.74;56.11;97838.92;1744047;82;21008;-76
2021/06/24 07:14:18;;;;;;;17.87;6.25;;;;;;;25.85;55.72;97840.62;1737575;81;21032;-76
2021/06/24 07:16:47;;;;;;;19.05;6.25;;;;;;;25.95;55.04;97840.61;1733589;81;21354;-75
2021/06/24 07:19:19;;;;;;;28.15;14.58;;;;;;;26.16;54.69;97834.94;1736362;81;21046;-75
2021/06/24 07:21:47;;;;;;;27.73;10.68;;;;;;;26.27;54.75;97835.29;1721299;83;21288;-75
2021/06/24 07:24:16;;;;;;;21.93;9.95;;;;;;;26.39;54.94;97834.59;1705953;84;21072;-74
2021/06/24 07:26:44;;;;;;;21.45;7.33;;;;;;;26.39;54.94;97834.59;1706431;84;21025;-74
2021/06/24 07:29:13;;;;;;;99.52;70.70;;;;;;;26.49;54.85;97839.48;1706519;84;21144;-76
2021/06/24 07:31:43;;;;;;;86.72;66.12;;;;;;;26.59;54.53;97844.01;1706496;84;20985;-76
2021/06/24 07:34:11;;;;;;;20.05;8.50;;;;;;;26.65;54.72;97847.98;1713288;82;21450;-74
2021/06/24 07:36:41;;;;;;;26.27;9.05;;;;;;;26.75;54.32;97832.47;1777682;80;21013;-74
2021/06/24 07:39:12;;;;;;;23.38;7.17;;;;;;;26.75;54.32;97832.47;1782261;80;21064;-75
2021/06/24 07:41:42;;;;;;;19.48;6.15;;;;;;;26.88;54.32;97840.25;1782569;80;21025;-74
2021/06/24 07:44:12;;;;;;;16.25;6.70;;;;;;;26.96;53.78;97840.88;1708551;84;21040;-75
2021/06/24 07:46:44;;;;;;;21.25;7.37;;;;;;;27.01;52.65;97842.13;1781876;80;21079;-74
2021/06/24 07:49:10;;;;;;;19.67;6.25;;;;;;;27.12;53.53;97838.83;1744000;82;21020;-74
2021/06/24 07:51:40;;;;;;;25.15;6.17;;;;;;;27.19;52.65;97829.55;1745990;82;21025;-75
2021/06/24 07:54:10;;;;;;;18.60;6.83;;;;;;;27.26;51.59;97824.69;1746421;82;21040;-74
2021/06/24 07:56:39;;;;;;;36.28;20.32;;;;;;;27.35;52.18;97827.45;1741676;82;20971;-75
2021/06/24 07:59:12;;;;;;;22.90;9.60;;;;;;;27.46;52.35;97829.09;1731305;82;21093;-75
2021/06/24 08:01:42;;;;;;;25.72;13.08;;;;;;;27.54;52.27;97825.08;1737101;81;21062;-75
2021/06/24 08:04:10;;;;;;;15.70;7.03;;;;;;;27.60;51.60;97824.99;1731575;83;21464;-75
2021/06/24 08:06:38;;;;;;;15.83;6.37;;;;;;;27.67;51.00;97828.77;1731595;83;21460;-75
2021/06/24 08:09:13;;;;;;;20.75;7.30;;;;;;;27.76;50.97;97827.82;1731811;82;21078;-75
2021/06/24 08:11:40;;;;;;;17.98;7.40;;;;;;;27.85;50.89;97827.88;1731769;82;20959;-75
2021/06/24 08:14:09;;;;;;;20.80;6.53;;;;;;;27.91;50.80;97826.70;1736901;83;21427;-74
2021/06/24 08:16:40;;;;;;;21.45;6.72;;;;;;;27.98;50.35;97832.38;1731771;82;21377;-75
2021/06/24 08:19:07;;;;;;;15.32;6.28;;;;;;;28.05;50.32;97833.95;1748714;82;21005;-75
2021/06/24 08:21:37;;;;;;;23.73;6.58;;;;;;;28.13;49.30;97838.59;1746104;82;21441;-75
2021/06/24 08:24:07;;;;;;;20.70;6.50;;;;;;;28.22;49.46;97832.17;1746392;82;21391;-75
2021/06/24 08:26:38;;;;;;;15.55;5.80;;;;;;;28.30;49.03;97831.38;1746006;82;21466;-75
2021/06/24 08:29:08;;;;;;;13.70;5.60;;;;;;;28.40;48.45;97825.82;1746411;81;21013;-75
2021/06/24 08:31:36;;;;;;;16.45;5.05;;;;;;;28.53;47.11;97828.95;1746215;81;20997;-74
2021/06/24 08:34:04;;;;;;;14.63;5.65;;;;;;;28.65;46.62;97833.56;1740534;81;21129;-75
2021/06/24 08:36:33;;;;;;;27.10;11.50;;;;;;;28.77;46.36;97827.30;1735876;83;21033;-75
2021/06/24 08:39:03;;;;;;;15.20;6.60;;;;;;;28.87;46.53;97831.25;1735882;83;20998;-75
2021/06/24 08:41:32;;;;;;;12.25;6.30;;;;;;;28.95;46.44;97822.27;1735409;83;21006;-75
2021/06/24 08:44:01;;;;;;;21.82;6.10;;;;;;;29.07;46.86;97822.80;1735743;83;21395;-75
2021/06/24 08:46:30;;;;;;;23.90;6.30;;;;;;;29.16;46.36;97820.42;1734888;83;21386;-75
2021/06/24 08:49:01;;;;;;;24.77;6.03;;;;;;;29.28;46.29;97825.54;1713032;83;20962;-75
2021/06/24 08:51:30;;;;;;;16.80;5.92;;;;;;;29.38;46.07;97824.36;1735853;81;21065;-75
2021/06/24 08:54:00;;;;;;;20.25;6.15;;;;;;;29.49;45.95;97828.63;1735810;83;21029;-75
2021/06/24 08:56:35;;;;;;;17.07;6.00;;;;;;;29.58;44.89;97819.95;1735922;81;21117;-75
2021/06/24 08:59:05;;;;;;;16.85;6.00;;;;;;;29.67;45.39;97819.95;1735532;83;21076;-75
2021/06/24 09:01:56;;;;;;;16.52;5.62;;;;;;;29.76;45.04;97817.52;1735917;83;21372;-75
2021/06/24 09:04:29;;;;;;;26.37;5.85;;;;;;;29.88;44.32;97822.11;1735889;83;21017;-75
2021/06/24 09:07:12;;;;;;;15.53;7.35;;;;;;;30.01;43.54;97818.33;1735932;83;21555;-75
2021/06/24 09:09:54;;;;;;;17.70;5.95;;;;;;;30.10;43.97;97815.05;1735802;83;21106;-75
2021/06/24 09:12:26;;;;;;;17.87;6.17;;;;;;;30.19;44.46;97806.87;1735916;83;21001;-75
2021/06/24 09:15:01;;;;;;;16.35;5.90;;;;;;;30.28;44.54;97810.78;1735820;81;21010;-75
2021/06/24 09:17:44;;;;;;;14.28;5.92;;;;;;;30.36;44.49;97806.30;1733407;82;20999;-75
2021/06/24 09:20:27;;;;;;;16.75;6.15;;;;;;;30.45;44.22;97805.23;1732758;83;21001;-75
2021/06/24 09:23:24;;;;;;;18.10;6.67;;;;;;;30.54;43.87;97804.16;1735754;83;21029;-75
2021/06/24 09:26:14;;;;;;;18.52;6.17;;;;;;;30.68;42.51;97794.88;1735763;81;21078;-75
2021/06/24 09:28:47;;;;;;;18.20;6.28;;;;;;;30.78;42.70;97798.77;1736164;83;20962;-75
2021/06/24 09:31:41;;;;;;;17.45;6.15;;;;;;;30.86;41.22;97798.72;1735588;82;21085;-75
2021/06/24 09:34:11;;;;;;;16.55;6.05;;;;;;;30.91;41.05;97790.82;1739681;81;21033;-75
2021/06/24 09:36:42;;;;;;;15.35;6.08;;;;;;;31.03;41.66;97799.97;1746478;82;21033;-75
2021/06/24 09:39:34;;;;;;;17.25;6.30;;;;;;;31.15;41.31;97790.81;1746578;82;21045;-76
2021/06/24 09:42:13;;;;;;;16.60;7.03;;;;;;;31.29;41.82;97791.42;1746276;82;20962;-75
2021/06/24 09:44:48;;;;;;;18.65;6.08;;;;;;;31.40;40.73;97793.38;1746475;82;20966;-75
2021/06/24 09:47:26;;;;;;;21.17;8.28;;;;;;;31.52;41.20;97785.58;1733388;81;20969;-75
2021/06/24 09:50:10;;;;;;;20.00;6.87;;;;;;;31.63;40.95;97782.37;1716986;84;21016;-75
2021/06/24 09:52:42;;;;;;;15.25;6.70;;;;;;;31.72;39.11;97781.80;1716783;82;21097;-75
2021/06/24 09:55:15;;;;;;;17.12;6.87;;;;;;;31.87;40.59;97792.79;1716943;82;20965;-75
2021/06/24 09:57:51;;;;;;;17.10;6.60;;;;;;;31.98;39.22;97793.72;1687315;84;21008;-75
2021/06/24 10:00:28;;;;;;;13.05;6.28;;;;;;;32.09;39.86;97789.63;1716077;84;21041;-75
2021/06/24 10:03:08;;;;;;;18.50;6.72;;;;;;;32.23;39.81;97792.05;1716837;84;20977;-75
2021/06/24 10:05:40;;;;;;;17.00;7.05;;;;;;;32.36;39.57;97787.77;1724016;82;21093;-75
2021/06/24 10:08:10;;;;;;;10.18;5.97;;;;;;;32.51;38.70;97789.17;1731445;82;21098;-75
2021/06/24 10:10:41;;;;;;;15.25;6.80;;;;;;;32.57;38.80;97790.27;1736606;82;21092;-75
2021/06/24 10:13:11;;;;;;;16.63;6.00;;;;;;;32.71;38.84;97784.44;1737047;82;20995;-76
2021/06/24 10:15:40;;;;;;;18.27;6.08;;;;;;;32.78;35.86;97780.73;1731749;82;21025;-75
2021/06/24 10:18:09;;;;;;;15.45;6.12;;;;;;;32.85;36.47;97781.31;1744983;82;20993;-75
2021/06/24 10:20:40;;;;;;;17.95;6.70;;;;;;;32.89;36.64;97782.12;1746021;82;21036;-75
2021/06/24 10:23:13;;;;;;;14.00;6.53;;;;;;;32.96;36.90;97777.21;1746377;82;21064;-75
2021/06/24 10:25:45;;;;;;;14.50;6.62;;;;;;;33.09;36.72;97775.16;1746787;81;21037;-76
2021/06/24 10:28:13;;;;;;;17.15;6.15;;;;;;;33.08;35.33;97771.55;1746342;82;20992;-75
2021/06/24 10:30:43;;;;;;;17.02;7.33;;;;;;;33.05;34.78;97777.45;1746384;82;20997;-75
2021/06/24 10:33:16;;;;;;;13.00;6.55;;;;;;;33.18;35.55;97769.86;1746483;82;21005;-75
2021/06/24 10:35:52;;;;;;;15.68;6.62;;;;;;;33.25;35.47;97768.01;1767621;81;21429;-76
2021/06/24 10:38:24;;;;;;;13.75;6.25;;;;;;;33.27;35.03;97759.58;1768320;81;21450;-75
2021/06/24 10:41:03;;;;;;;14.30;6.10;;;;;;;33.45;35.43;97756.34;1764265;81;21020;-75
2021/06/24 10:43:50;;;;;;;18.87;7.28;;;;;;;33.61;35.53;97745.62;1768267;81;21025;-76
2021/06/24 10:46:28;;;;;;;17.87;6.60;;;;;;;34.00;35.91;97747.98;1763767;81;21472;-75
2021/06/24 10:48:53;;;;;;;12.58;6.50;;;;;;;34.67;35.21;97747.47;1736571;82;21465;-76
2021/06/24 10:51:33;;;;;;;15.65;6.95;;;;;;;35.28;33.25;97745.67;1737665;83;21056;-75
2021/06/24 10:54:03;;;;;;;12.85;6.33;;;;;;;35.83;30.81;97743.23;1737591;83;21016;-76
2021/06/24 10:56:47;;;;;;;16.20;6.25;;;;;;;36.66;30.81;97740.83;1737425;83;20996;-76
2021/06/24 10:59:28;;;;;;;20.62;6.37;;;;;;;37.38;29.83;97731.45;1737945;83;21016;-75
2021/06/24 11:02:08;;;;;;;11.25;5.55;;;;;;;38.11;29.87;97741.20;1737305;83;20989;-76
2021/06/24 11:04:43;;;;;;;11.18;6.03;;;;;;;38.71;29.17;97736.84;1737808;83;21044;-76
2021/06/24 11:07:21;;;;;;;12.85;6.50;;;;;;;39.29;28.81;97730.33;1737838;83;21016;-76
2021/06/24 11:10:15;;;;;;;20.23;6.55;;;;;;;39.77;27.49;97734.55;1737507;83;21000;-76
2021/06/24 11:12:55;;;;;;;14.40;6.17;;;;;;;40.29;27.37;97732.90;1737820;83;21063;-76
2021/06/24 11:15:46;;;;;;;13.43;6.50;;;;;;;40.86;26.64;97731.83;1738014;83;21457;-76
2021/06/24 11:18:37;;;;;;;12.98;6.40;;;;;;;41.32;25.38;97724.87;1766060;81;21290;-76
2021/06/24 11:21:34;;;;;;;13.40;6.30;;;;;;;41.73;25.12;97726.62;1768085;81;20968;-76
2021/06/24 11:24:16;;;;;;;12.90;5.75;;;;;;;41.94;25.05;97720.80;1767672;81;21047;-76
2021/06/24 11:26:48;;;;;;;20.37;7.80;;;;;;;42.01;23.10;97722.01;1768349;81;21346;-76
2021/06/24 11:32:15;;;;;;;14.13;6.25;;;;;;;42.53;23.29;97721.26;1768034;81;21008;-76
2021/06/24 11:35:01;;;;;;;11.88;6.65;;;;;;;42.74;22.60;97726.53;1753320;81;21029;-74
2021/06/24 11:37:32;;;;;;;11.85;5.90;;;;;;;43.03;22.75;97731.87;1735874;83;21030;-75
2021/06/24 11:40:07;;;;;;;16.10;6.60;;;;;;;43.28;22.33;97724.83;1735958;83;21128;-76
2021/06/24 11:42:45;;;;;;;16.42;7.08;;;;;;;43.43;22.07;97723.30;1735912;83;20994;-75
2021/06/24 11:45:19;;;;;;;15.13;6.22;;;;;;;43.78;21.99;97721.84;1735643;83;21018;-75
2021/06/24 11:47:47;;;;;;;10.63;5.95;;;;;;;43.88;21.55;97719.72;1710527;83;20985;-75
2021/06/24 12:00:27;;;;;;;12.88;6.08;;;;;;;44.21;21.51;97724.63;1706384;84;21450;-75
2021/06/24 12:04:20;;;;;;;17.32;6.40;;;;;;;44.56;20.40;97716.11;1706508;84;21056;-75